Terminal Aerodrome Forecast
Issued by NWS

Home | Current Version | Previous Version | Text Only | Print | Product List | Glossary On
Versions: 1 2 3 4 5 6 7 8 9 10 11 12 13 14 15 16 17
000
FTUS42 KTAE 051727
TAFECP
TAF
KECP 051727Z 0518/0618 14007KT 5SM RA VCTS OVC015CB
      TEMPO 0518/0521 2SM +TSRA OVC005CB
     FM052200 15009KT 5SM RA VCTS OVC005CB=

USA.gov is the U.S. government's official web portal to all federal, state and local government web resources and services.